Time;durP1;ratioP1;P1;durP2;ratioP2;P2;SDS_P1;SDS_P2;PMS_P1;PMS_P2;Temp;Humidity;BMP_temperature;BMP_pressure;BME280_temperature;BME280_humidity;BME280_pressure;Samples;Min_cycle;Max_cycle;Signal;HPM_P1;HPM_P2
2023/10/09 02:46:30;;;;;;;0.80;0.40;;;;;;;12.08;53.44;100523.11;106315;1256;73171;-84
2023/10/09 02:48:58;;;;;;;0.30;0.30;;;;;;;12.01;54.24;100528.59;106159;1255;68421;-84
2023/10/09 02:51:32;;;;;;;0.60;0.40;;;;;;;11.96;55.15;100527.33;106247;1257;71706;-84
2023/10/09 02:54:18;;;;;;;2.20;0.90;;;;;;;11.94;55.47;100529.64;106162;1255;59737;-82
2023/10/09 02:59:38;;;;;;;1.40;0.50;;;;;;;11.95;55.96;100536.20;106437;1255;71901;-83
2023/10/09 03:02:07;;;;;;;0.80;0.50;;;;;;;11.97;55.89;100535.80;106308;1259;68333;-83
2023/10/09 03:04:35;;;;;;;2.40;0.40;;;;;;;11.96;56.13;100538.06;106091;1257;72714;-84
2023/10/09 03:07:04;;;;;;;1.00;0.60;;;;;;;11.99;56.28;100543.23;106053;1258;59524;-88
2023/10/09 03:09:32;;;;;;;3.00;0.40;;;;;;;12.00;56.16;100541.80;105973;1255;59983;-83
2023/10/09 03:12:12;;;;;;;1.50;0.70;;;;;;;12.00;56.32;100546.52;106274;1255;71750;-88
2023/10/09 03:14:41;;;;;;;1.00;0.50;;;;;;;12.01;56.20;100547.55;107216;1255;67251;-88
2023/10/09 03:17:11;;;;;;;1.20;0.50;;;;;;;12.03;56.38;100554.05;106308;1256;72675;-88
2023/10/09 03:19:41;;;;;;;1.00;0.40;;;;;;;12.03;56.19;100557.61;106248;1256;60818;-83
2023/10/09 03:22:11;;;;;;;1.70;0.40;;;;;;;12.05;56.36;100556.66;106072;1255;60449;-83
2023/10/09 03:24:44;;;;;;;1.70;0.50;;;;;;;12.06;56.11;100558.19;106000;1256;72861;-83
2023/10/09 03:27:17;;;;;;;1.50;0.50;;;;;;;12.05;56.24;100557.59;106980;1254;67252;-83
2023/10/09 03:29:53;;;;;;;0.40;0.30;;;;;;;12.06;56.08;100558.96;106840;1258;71438;-83
2023/10/09 03:32:22;;;;;;;2.60;0.70;;;;;;;12.08;55.77;100558.17;106152;1255;59666;-83
2023/10/09 03:34:51;;;;;;;4.00;0.60;;;;;;;12.10;55.50;100561.83;106321;1256;59737;-88
2023/10/09 03:37:28;;;;;;;0.60;0.30;;;;;;;12.13;55.11;100559.29;106302;1258;72825;-89
2023/10/09 03:39:56;;;;;;;1.90;0.60;;;;;;;12.12;54.99;100562.69;106105;1256;68444;-89
2023/10/09 03:42:24;;;;;;;2.50;0.50;;;;;;;12.14;54.71;100565.58;107383;1260;71494;-83
2023/10/09 03:44:53;;;;;;;2.30;0.50;;;;;;;12.19;54.19;100568.98;106445;1257;59759;-83
2023/10/09 03:47:27;;;;;;;2.20;0.50;;;;;;;12.19;53.71;100572.54;106582;1256;59998;-83
2023/10/09 03:49:56;;;;;;;1.90;0.40;;;;;;;12.17;53.65;100573.94;106321;1259;73284;-83
2023/10/09 03:52:27;;;;;;;2.60;0.90;;;;;;;12.19;53.38;100576.54;106194;1259;67125;-83
2023/10/09 03:54:55;;;;;;;0.40;0.20;;;;;;;12.19;53.17;100581.09;106114;1258;71771;-89
2023/10/09 03:57:24;;;;;;;1.30;0.30;;;;;;;12.18;53.15;100585.70;106738;1256;59631;-83
2023/10/09 03:59:52;;;;;;;0.80;0.30;;;;;;;12.18;53.08;100587.83;107556;1254;59593;-88
2023/10/09 04:02:22;;;;;;;2.20;0.50;;;;;;;12.17;53.13;100588.52;106324;1259;72819;-83
2023/10/09 04:04:51;;;;;;;0.80;0.30;;;;;;;12.17;53.23;100590.91;106325;1256;69800;-83
2023/10/09 04:07:21;;;;;;;2.70;0.50;;;;;;;12.17;53.12;100594.96;106069;1257;73204;-83
2023/10/09 04:10:01;;;;;;;2.60;0.40;;;;;;;12.15;53.42;100599.59;106159;1257;59740;-83
2023/10/09 04:12:30;;;;;;;1.70;0.50;;;;;;;12.13;53.98;100599.81;106964;1254;59569;-84
2023/10/09 04:15:01;;;;;;;0.70;0.40;;;;;;;12.07;54.29;100601.63;106501;1260;71755;-84
2023/10/09 04:17:33;;;;;;;3.10;0.30;;;;;;;12.07;54.54;100600.25;106255;1259;69692;-83
2023/10/09 04:22:59;;;;;;;1.90;0.50;;;;;;;12.09;54.65;100606.87;106199;1259;59557;-83
2023/10/09 04:25:41;;;;;;;2.90;0.80;;;;;;;12.10;54.55;100612.13;106191;1257;59679;-83
2023/10/09 04:28:18;;;;;;;2.90;0.70;;;;;;;12.04;54.83;100611.00;106127;1259;73596;-84
2023/10/09 04:30:53;;;;;;;1.30;0.50;;;;;;;12.07;54.67;100611.37;107340;1259;67123;-84
2023/10/09 04:33:28;;;;;;;0.90;0.50;;;;;;;12.12;54.56;100612.65;106191;1262;71402;-83
2023/10/09 04:44:22;;;;;;;1.50;0.50;;;;;;;12.14;54.11;100640.25;106267;1255;66142;-83
2023/10/09 04:55:38;;;;;;;1.30;0.40;;;;;;;12.16;53.71;100656.98;105973;1256;73045;-87
2023/10/09 04:58:08;;;;;;;1.40;0.40;;;;;;;12.18;53.46;100663.34;106178;1256;68801;-87
2023/10/09 05:00:46;;;;;;;0.90;0.40;;;;;;;12.22;53.67;100664.19;106232;1254;72473;-89
2023/10/09 05:06:20;;;;;;;0.30;0.30;;;;;;;12.25;53.61;100668.33;106074;1254;60084;-84
2023/10/09 05:08:48;;;;;;;2.40;0.60;;;;;;;12.28;53.40;100672.58;106207;1260;71758;-88
2023/10/09 05:11:52;;;;;;;0.70;0.30;;;;;;;12.33;53.32;100673.98;106229;1259;67158;-89
2023/10/09 05:14:27;;;;;;;0.50;0.30;;;;;;;12.44;52.90;100676.02;106213;1256;72628;-88
2023/10/09 05:16:55;;;;;;;2.00;0.50;;;;;;;12.50;52.66;100679.15;107799;1256;59752;-89
2023/10/09 05:19:33;;;;;;;2.10;0.40;;;;;;;12.51;52.47;100686.05;106183;1256;59236;-87
2023/10/09 05:22:07;;;;;;;1.40;0.50;;;;;;;12.49;52.50;100684.03;106094;1256;71740;-88
2023/10/09 05:24:47;;;;;;;1.50;0.40;;;;;;;12.50;52.26;100683.54;106119;1256;68470;-87
2023/10/09 05:27:17;;;;;;;2.70;0.50;;;;;;;12.54;51.83;100690.64;106112;1255;73251;-85
2023/10/09 05:30:24;;;;;;;1.10;0.40;;;;;;;12.57;51.59;100694.50;106695;1254;59634;-84
2023/10/09 05:32:48;;;;;;;0.70;0.40;;;;;;;12.59;51.20;100701.50;106564;1256;60122;-85
2023/10/09 05:35:16;;;;;;;0.40;0.30;;;;;;;12.57;51.18;100707.28;106398;1259;72723;-83
2023/10/09 05:37:45;;;;;;;2.10;0.60;;;;;;;12.57;51.12;100712.70;106414;1257;68491;-87
2023/10/09 05:42:45;;;;;;;3.70;0.70;;;;;;;12.61;50.83;100721.89;106342;1259;59715;-83
2023/10/09 05:50:34;;;;;;;1.50;0.70;;;;;;;12.59;50.82;100736.26;106368;1254;67335;-84
2023/10/09 06:06:45;;;;;;;1.70;0.50;;;;;;;12.79;50.37;100745.37;106425;1262;71388;-87
2023/10/09 06:11:49;;;;;;;0.80;0.70;;;;;;;12.97;49.97;100744.40;106932;1254;60861;-90
2023/10/09 06:14:26;;;;;;;1.50;0.60;;;;;;;13.10;49.62;100751.34;106749;1260;76330;-83
2023/10/09 06:19:31;;;;;;;2.30;1.10;;;;;;;13.41;48.67;100757.17;106922;1254;74030;-84
2023/10/09 06:24:42;;;;;;;2.80;1.00;;;;;;;13.76;47.79;100761.88;106559;1259;60540;-84
2023/10/09 06:27:12;;;;;;;2.90;0.80;;;;;;;13.92;47.15;100760.58;106590;1260;74549;-84
2023/10/09 06:34:52;;;;;;;3.50;0.80;;;;;;;14.25;46.05;100761.69;107178;1260;60238;-88
2023/10/09 06:42:34;;;;;;;2.00;0.60;;;;;;;14.49;45.04;100760.36;107303;1256;67474;-85
2023/10/09 06:45:16;;;;;;;1.90;0.60;;;;;;;14.50;44.70;100763.40;106732;1259;71382;-83
2023/10/09 06:53:28;;;;;;;1.30;0.60;;;;;;;14.50;44.29;100769.67;106322;1260;72991;-83
2023/10/09 06:56:05;;;;;;;2.30;1.20;;;;;;;14.60;44.08;100771.97;106392;1257;67903;-88
2023/10/09 06:58:47;;;;;;;2.90;0.70;;;;;;;14.72;43.65;100774.23;106525;1259;70836;-89
2023/10/09 07:06:52;;;;;;;2.40;0.80;;;;;;;14.87;42.46;100793.55;106221;1259;73959;-83
2023/10/09 07:09:21;;;;;;;2.20;0.70;;;;;;;14.84;42.50;100794.94;106248;1258;68404;-88
2023/10/09 07:17:15;;;;;;;5.60;1.30;;;;;;;14.66;42.93;100802.54;106462;1257;60453;-89
2023/10/09 07:27:44;;;;;;;2.40;1.00;;;;;;;14.71;43.07;100812.73;106574;1254;60466;-88
2023/10/09 07:35:57;;;;;;;4.30;0.80;;;;;;;14.95;42.58;100814.08;106545;1258;68768;-83
2023/10/09 07:38:30;;;;;;;2.30;0.70;;;;;;;15.01;42.28;100814.95;107519;1258;71388;-87
2023/10/09 07:43:39;;;;;;;3.90;0.80;;;;;;;15.14;41.65;100816.50;106835;1259;60632;-87
2023/10/09 07:46:32;;;;;;;0.90;0.60;;;;;;;15.16;41.53;100815.88;106895;1260;72597;-83
2023/10/09 07:48:57;;;;;;;1.90;0.70;;;;;;;15.16;41.41;100819.02;106453;1260;67446;-89
2023/10/09 07:51:31;;;;;;;1.20;0.70;;;;;;;15.17;41.20;100822.90;106461;1257;72110;-89
2023/10/09 07:54:09;;;;;;;1.00;0.50;;;;;;;15.24;41.35;100822.73;106481;1254;60322;-85
2023/10/09 07:56:46;;;;;;;1.80;0.60;;;;;;;15.36;41.00;100829.78;106597;1258;60492;-82
2023/10/09 07:59:17;;;;;;;2.90;0.50;;;;;;;15.49;40.58;100831.71;106903;1254;73828;-89
2023/10/09 08:01:52;;;;;;;1.10;0.70;;;;;;;15.51;40.00;100834.58;108624;1257;67575;-88
2023/10/09 08:04:37;;;;;;;1.20;0.80;;;;;;;15.54;40.19;100842.91;108487;1256;73172;-90
2023/10/09 08:07:19;;;;;;;3.60;1.10;;;;;;;15.74;40.48;100841.35;106844;1257;60519;-84
2023/10/09 08:15:51;;;;;;;1.70;1.20;;;;;;;16.28;38.56;100835.74;106467;1258;67281;-88
2023/10/09 08:18:27;;;;;;;4.70;1.20;;;;;;;16.32;38.41;100836.82;106480;1260;72799;-83
2023/10/09 08:23:33;;;;;;;2.50;0.90;;;;;;;16.31;37.97;100845.77;106366;1257;60444;-89
2023/10/09 08:26:12;;;;;;;2.50;0.90;;;;;;;16.30;37.74;100849.48;106526;1260;71815;-83
2023/10/09 08:28:48;;;;;;;3.70;0.70;;;;;;;16.25;38.00;100844.53;106704;1259;68961;-82
2023/10/09 08:31:34;;;;;;;5.40;0.70;;;;;;;16.31;38.02;100855.83;106471;1254;72008;-89
2023/10/09 08:34:03;;;;;;;1.10;0.60;;;;;;;16.50;38.09;100853.10;106642;1255;60434;-84
2023/10/09 08:36:37;;;;;;;0.80;0.60;;;;;;;16.68;37.45;100854.73;106200;1257;60316;-84
2023/10/09 08:39:24;;;;;;;4.80;0.80;;;;;;;16.82;36.42;100863.39;106730;1259;73846;-88
2023/10/09 08:41:57;;;;;;;2.40;0.70;;;;;;;16.90;36.21;100859.72;106389;1260;68417;-91
2023/10/09 08:44:31;;;;;;;3.90;0.90;;;;;;;16.95;35.97;100853.14;106667;1256;72847;-88
2023/10/09 08:47:00;;;;;;;2.50;0.60;;;;;;;16.89;35.77;100852.67;106563;1254;60513;-86
2023/10/09 08:49:28;;;;;;;2.10;0.80;;;;;;;16.89;35.59;100853.02;106343;1258;60604;-84
2023/10/09 08:51:56;;;;;;;1.10;0.70;;;;;;;16.89;35.79;100857.04;106306;1261;72990;-83
2023/10/09 08:54:24;;;;;;;2.40;0.80;;;;;;;17.01;36.11;100849.48;106509;1255;68902;-87
2023/10/09 08:56:53;;;;;;;2.90;1.00;;;;;;;17.19;35.62;100850.52;106312;1258;73121;-88
2023/10/09 08:59:21;;;;;;;6.80;0.90;;;;;;;17.27;34.97;100845.27;106374;1257;60434;-84
2023/10/09 09:01:49;;;;;;;3.50;1.00;;;;;;;17.28;34.79;100843.23;106804;1259;60299;-87
2023/10/09 09:04:34;;;;;;;2.40;0.80;;;;;;;17.27;34.90;100836.64;106429;1259;75910;-84
2023/10/09 09:07:02;;;;;;;1.50;0.80;;;;;;;17.33;34.74;100836.25;106485;1254;68400;-84
2023/10/09 09:09:31;;;;;;;1.80;0.70;;;;;;;17.43;34.42;100836.49;106529;1254;71747;-85
2023/10/09 09:12:00;;;;;;;1.20;0.60;;;;;;;17.48;34.37;100832.94;106484;1258;60531;-84
2023/10/09 09:14:38;;;;;;;3.00;1.20;;;;;;;17.59;34.28;100839.50;107319;1254;60380;-87
2023/10/09 09:17:10;;;;;;;1.50;0.60;;;;;;;17.70;34.11;100837.17;108917;1253;74758;-91
2023/10/09 09:19:39;;;;;;;2.20;1.00;;;;;;;17.76;33.61;100841.91;106373;1260;69997;-87
2023/10/09 09:22:14;;;;;;;1.50;0.70;;;;;;;17.74;33.34;100838.81;106205;1258;74838;-87
2023/10/09 09:24:46;;;;;;;1.40;0.90;;;;;;;17.74;33.06;100835.11;106616;1255;60924;-84
2023/10/09 09:27:18;;;;;;;1.50;0.80;;;;;;;17.77;32.79;100837.64;106302;1256;60479;-88
2023/10/09 09:29:55;;;;;;;;;;;;;;;17.79;32.19;100845.05;106512;1254;73851;-84
2023/10/09 09:32:35;;;;;;;2.80;1.00;;;;;;;17.72;32.06;100844.30;106449;1254;66148;-84
2023/10/09 09:35:05;;;;;;;4.40;1.20;;;;;;;17.73;32.18;100843.08;106546;1257;71274;-90
2023/10/09 09:43:05;;;;;;;2.40;0.50;;;;;;;17.99;31.70;100828.15;106481;1257;73813;-84
2023/10/09 09:45:34;;;;;;;1.00;0.50;;;;;;;17.93;31.79;100829.60;106347;1254;70498;-87
2023/10/09 09:48:05;;;;;;;1.40;0.70;;;;;;;17.92;31.19;100832.94;106645;1253;73418;-90
2023/10/09 09:57:30;;;;;;;0.70;0.60;;;;;;;18.23;31.06;100831.45;103233;1292;600103;-81
2023/10/09 10:00:01;;;;;;;2.60;0.60;;;;;;;18.28;30.58;100826.61;105649;1267;60107;-81
2023/10/09 10:02:38;;;;;;;2.40;0.60;;;;;;;18.34;29.92;100840.68;107249;1266;59377;-81
2023/10/09 10:05:08;;;;;;;0.80;0.30;;;;;;;18.27;29.73;100838.80;105637;1266;74106;-81
2023/10/09 10:07:43;;;;;;;1.20;0.50;;;;;;;18.14;29.87;100836.46;105499;1270;70656;-80
2023/10/09 10:10:38;;;;;;;2.00;0.70;;;;;;;18.13;30.37;100833.08;105231;1269;340853;-81
2023/10/09 10:13:14;;;;;;;1.90;0.70;;;;;;;18.21;30.56;100839.02;105771;1265;61218;-80
2023/10/09 10:16:15;;;;;;;1.50;0.60;;;;;;;18.21;29.69;100828.51;105584;1265;59640;-81
2023/10/09 10:18:59;;;;;;;2.00;0.90;;;;;;;18.23;30.12;100822.20;106303;1267;71901;-80
2023/10/09 10:21:52;;;;;;;1.40;0.50;;;;;;;18.38;29.97;100813.79;105604;1263;69287;-81
2023/10/09 10:24:30;;;;;;;1.00;0.70;;;;;;;18.51;29.56;100811.96;105460;1272;71679;-81
2023/10/09 10:30:18;;;;;;;1.10;0.50;;;;;;;18.37;28.77;100798.42;105597;1264;62120;-80
2023/10/09 10:33:09;;;;;;;2.00;0.80;;;;;;;18.26;28.74;100793.84;106531;1263;71556;-81
2023/10/09 10:35:44;;;;;;;2.70;0.70;;;;;;;18.25;29.22;100787.13;105662;1267;68442;-81
2023/10/09 10:38:49;;;;;;;4.20;1.70;;;;;;;18.24;29.48;100791.52;105584;1263;71048;-79
2023/10/09 10:41:22;;;;;;;3.60;0.70;;;;;;;18.21;28.96;100799.02;105599;1264;62210;-80
2023/10/09 10:46:30;;;;;;;1.40;0.60;;;;;;;17.96;29.22;100796.95;106092;1263;74103;-80
2023/10/09 10:49:15;;;;;;;1.40;0.80;;;;;;;17.91;29.54;100799.14;105689;1264;71128;-80
2023/10/09 10:52:01;;;;;;;1.10;0.60;;;;;;;17.97;29.97;100801.51;105620;1265;73060;-80
2023/10/09 10:57:00;;;;;;;3.80;0.80;;;;;;;18.29;29.01;100785.73;105793;1264;60009;-80
2023/10/09 10:59:36;;;;;;;0.90;0.50;;;;;;;18.44;28.99;100780.91;106480;1268;73091;-81
2023/10/09 11:04:41;;;;;;;4.90;0.70;;;;;;;18.59;28.18;100774.91;105603;1268;70627;-80
2023/10/09 11:07:10;;;;;;;1.80;0.80;;;;;;;18.64;28.20;100781.39;105746;1268;59709;-80
2023/10/09 11:15:37;;;;;;;0.60;0.50;;;;;;;18.75;27.53;100763.32;105660;1263;68655;-84
2023/10/09 11:18:16;;;;;;;2.80;0.70;;;;;;;18.83;27.51;100774.95;105749;1264;74412;-85
2023/10/09 11:26:25;;;;;;;3.00;0.50;;;;;;;18.65;26.48;100786.77;105631;1270;75445;-81
2023/10/09 11:29:23;;;;;;;3.10;0.50;;;;;;;18.61;26.53;100787.29;105631;1263;67243;-81
2023/10/09 11:32:17;;;;;;;7.00;0.70;;;;;;;18.62;26.05;100784.39;105663;1266;72655;-80
2023/10/09 11:34:53;;;;;;;3.30;0.80;;;;;;;18.56;26.09;100794.66;107012;1264;59773;-81
2023/10/09 11:37:38;;;;;;;1.10;0.50;;;;;;;18.53;26.08;100793.95;105700;1263;59606;-81
2023/10/09 11:40:24;;;;;;;1.10;0.60;;;;;;;18.52;26.09;100791.52;105744;1264;74982;-80
2023/10/09 11:42:57;;;;;;;1.50;0.50;;;;;;;18.55;25.82;100790.96;105706;1268;70507;-80
2023/10/09 11:45:29;;;;;;;2.00;0.40;;;;;;;18.58;26.02;100790.61;106408;1269;72666;-85
2023/10/09 11:47:58;;;;;;;;;;;;;;;18.63;25.95;100788.26;105606;1266;61261;-85
2023/10/09 11:50:43;;;;;;;1.90;0.90;;;;;;;18.67;25.81;100784.03;105897;1263;61865;-81
2023/10/09 11:55:53;;;;;;;1.20;0.50;;;;;;;18.62;25.92;100788.04;105840;1262;67585;-82
2023/10/09 11:58:24;;;;;;;0.90;0.60;;;;;;;18.59;25.78;100784.59;106235;1260;71483;-82
2023/10/09 12:01:03;;;;;;;3.50;0.40;;;;;;;18.61;26.13;100779.15;106057;1259;59737;-82
2023/10/09 12:03:32;;;;;;;1.10;0.50;;;;;;;18.67;26.17;100773.15;106022;1257;60021;-81
2023/10/09 12:06:05;;;;;;;1.30;0.70;;;;;;;18.69;26.23;100768.88;106233;1256;73511;-82
2023/10/09 12:08:34;;;;;;;2.40;0.70;;;;;;;18.68;25.91;100776.44;105983;1257;70835;-82
2023/10/09 12:11:08;;;;;;;1.70;0.60;;;;;;;18.63;25.91;100773.62;106693;1256;72710;-82
2023/10/09 12:13:42;;;;;;;1.10;0.40;;;;;;;18.55;26.13;100773.48;106028;1257;59557;-82
2023/10/09 12:16:10;;;;;;;1.30;0.50;;;;;;;18.53;26.28;100776.09;105999;1257;60552;-82
2023/10/09 12:18:39;;;;;;;2.60;0.70;;;;;;;18.56;26.32;100770.36;105955;1256;70865;-83
2023/10/09 12:21:07;;;;;;;1.70;0.60;;;;;;;18.58;26.54;100763.50;106516;1257;70456;-87
2023/10/09 12:23:40;;;;;;;1.90;0.70;;;;;;;18.60;26.66;100762.35;106258;1256;73604;-86
2023/10/09 12:26:14;;;;;;;5.10;0.90;;;;;;;18.66;26.58;100768.93;106141;1262;60074;-86
2023/10/09 12:28:46;;;;;;;1.40;0.50;;;;;;;18.67;26.01;100767.01;106556;1256;61686;-86
2023/10/09 12:31:15;;;;;;;3.20;0.60;;;;;;;18.64;25.78;100769.05;106377;1255;71417;-82
2023/10/09 12:33:43;;;;;;;2.80;0.80;;;;;;;18.59;25.79;100770.80;106187;1256;68394;-81
2023/10/09 12:36:17;;;;;;;0.70;0.50;;;;;;;18.51;25.90;100773.71;107233;1260;72657;-82
2023/10/09 12:38:50;;;;;;;2.70;0.80;;;;;;;18.43;25.78;100770.73;106261;1258;59721;-85
2023/10/09 12:41:41;;;;;;;2.20;0.70;;;;;;;18.30;25.96;100776.68;106187;1260;61094;-82
2023/10/09 12:44:15;;;;;;;3.60;0.70;;;;;;;18.18;25.81;100779.98;105979;1256;75356;-82
2023/10/09 12:46:51;;;;;;;3.00;0.90;;;;;;;18.10;26.18;100780.40;105944;1257;67947;-81
2023/10/09 12:49:26;;;;;;;2.70;0.40;;;;;;;18.10;26.16;100776.07;106516;1257;71731;-81
2023/10/09 12:51:54;;;;;;;3.90;0.40;;;;;;;18.14;25.96;100787.63;105853;1256;61333;-85
2023/10/09 12:54:31;;;;;;;3.20;0.70;;;;;;;18.19;25.77;100792.52;105910;1259;59280;-81
2023/10/09 12:56:59;;;;;;;0.80;0.40;;;;;;;18.24;25.61;100788.27;105792;1255;71542;-85
2023/10/09 12:59:27;;;;;;;3.10;0.60;;;;;;;18.27;25.61;100786.19;106071;1257;68418;-81
2023/10/09 13:01:57;;;;;;;0.50;0.40;;;;;;;18.29;25.70;100791.98;106761;1257;74147;-81
2023/10/09 13:04:31;;;;;;;0.80;0.60;;;;;;;18.29;25.36;100788.80;106158;1257;60360;-87
2023/10/09 13:07:02;;;;;;;4.50;1.10;;;;;;;18.30;25.26;100787.34;106123;1256;61499;-81
2023/10/09 13:09:42;;;;;;;2.00;0.70;;;;;;;18.30;25.58;100788.20;106069;1256;74866;-81
2023/10/09 13:12:17;;;;;;;2.40;0.80;;;;;;;18.30;25.55;100786.74;106953;1257;69883;-88
2023/10/09 13:14:49;;;;;;;3.80;0.60;;;;;;;18.36;25.65;100789.84;105998;1259;72800;-81
2023/10/09 13:17:20;;;;;;;1.30;0.60;;;;;;;18.31;25.21;100788.98;105959;1261;59743;-88
2023/10/09 13:19:48;;;;;;;1.80;0.50;;;;;;;18.16;25.29;100788.83;106084;1256;59734;-81
2023/10/09 13:22:16;;;;;;;3.90;0.60;;;;;;;18.02;25.18;100790.40;106009;1261;73133;-88
2023/10/09 13:24:48;;;;;;;1.60;0.40;;;;;;;17.90;25.38;100787.48;107421;1256;71061;-89
2023/10/09 13:27:21;;;;;;;2.00;1.00;;;;;;;17.80;25.55;100788.27;106039;1256;70860;-88
2023/10/09 13:29:52;;;;;;;1.60;0.80;;;;;;;17.69;25.59;100788.02;106020;1260;60981;-86
2023/10/09 13:32:20;;;;;;;5.30;1.10;;;;;;;17.60;25.91;100787.03;105931;1256;60443;-80
2023/10/09 13:34:49;;;;;;;3.60;1.00;;;;;;;17.53;25.66;100793.63;105944;1261;72939;-80
2023/10/09 13:37:21;;;;;;;3.00;1.10;;;;;;;17.47;25.65;100789.70;106675;1260;67095;-88
2023/10/09 13:39:52;;;;;;;;;;;;;;;17.44;25.75;100793.77;106057;1256;72691;-81
2023/10/09 13:42:24;;;;;;;7.40;1.80;;;;;;;17.45;25.95;100793.23;105931;1258;59878;-81
2023/10/09 13:44:56;;;;;;;4.00;1.40;;;;;;;17.50;25.91;100791.57;105993;1256;61169;-88
2023/10/09 13:47:30;;;;;;;7.10;1.20;;;;;;;17.55;25.86;100788.89;106430;1256;71845;-88
2023/10/09 13:49:59;;;;;;;5.30;2.20;;;;;;;17.55;25.88;100790.64;105995;1256;67635;-87
2023/10/09 13:52:27;;;;;;;5.50;2.40;;;;;;;17.52;26.02;100790.79;106050;1257;72168;-82
2023/10/09 13:54:57;;;;;;;3.00;1.60;;;;;;;17.48;26.24;100788.04;105956;1256;60001;-82
2023/10/09 13:57:31;;;;;;;2.90;1.50;;;;;;;17.47;26.45;100783.37;106024;1256;59960;-88
2023/10/09 14:00:00;;;;;;;2.30;1.00;;;;;;;17.44;26.29;100783.38;106045;1257;75000;-88
2023/10/09 14:02:28;;;;;;;2.80;1.10;;;;;;;17.40;26.42;100779.95;106997;1259;68973;-82
2023/10/09 14:05:00;;;;;;;4.50;1.10;;;;;;;17.33;26.34;100780.75;106003;1257;73205;-86
2023/10/09 14:07:29;;;;;;;4.80;1.20;;;;;;;17.26;26.48;100787.41;106072;1255;62357;-87
2023/10/09 14:10:06;;;;;;;8.60;2.90;;;;;;;17.17;26.49;100788.45;105985;1258;60820;-88
2023/10/09 14:12:39;;;;;;;5.90;1.70;;;;;;;17.13;26.61;100785.67;105987;1258;73061;-82
2023/10/09 14:15:16;;;;;;;4.40;1.10;;;;;;;17.10;26.61;100792.38;106922;1257;67477;-82
2023/10/09 14:17:46;;;;;;;1.50;0.80;;;;;;;16.99;26.72;100797.66;105888;1256;72837;-89
2023/10/09 14:20:30;;;;;;;0.90;0.60;;;;;;;16.85;26.75;100803.55;105978;1262;62190;-88
2023/10/09 14:23:06;;;;;;;2.90;1.00;;;;;;;16.84;27.05;100803.95;106102;1256;60355;-87
2023/10/09 14:25:39;;;;;;;4.00;1.00;;;;;;;16.81;27.32;100798.95;106101;1256;73886;-81
2023/10/09 14:28:10;;;;;;;9.30;3.10;;;;;;;16.77;27.45;100797.58;107064;1257;68075;-82
2023/10/09 14:30:44;;;;;;;5.60;3.20;;;;;;;16.71;27.69;100792.28;105875;1256;72661;-88
2023/10/09 14:33:12;;;;;;;7.20;2.40;;;;;;;16.62;27.82;100792.34;105932;1256;60534;-81
2023/10/09 14:35:41;;;;;;;6.10;2.80;;;;;;;16.54;27.90;100795.02;106067;1256;60447;-83
2023/10/09 14:38:12;;;;;;;5.20;1.30;;;;;;;16.55;28.00;100801.95;106009;1257;73040;-88
2023/10/09 14:40:44;;;;;;;3.40;1.40;;;;;;;16.52;27.90;100803.13;106047;1259;68750;-81
2023/10/09 14:43:22;;;;;;;6.90;2.50;;;;;;;16.46;28.26;100802.36;107331;1260;72504;-88
2023/10/09 14:45:53;;;;;;;5.50;2.80;;;;;;;16.44;28.39;100805.14;105913;1257;60492;-86
2023/10/09 14:48:28;;;;;;;6.80;3.40;;;;;;;16.41;28.45;100804.04;105854;1256;62832;-81
2023/10/09 14:51:04;;;;;;;10.80;4.40;;;;;;;16.35;28.56;100807.52;105885;1256;74655;-81
2023/10/09 14:53:34;;;;;;;9.50;4.50;;;;;;;16.25;28.81;100807.08;105988;1256;69912;-87
2023/10/09 14:56:03;;;;;;;43.30;21.00;;;;;;;16.19;28.88;100806.79;106698;1256;73827;-81
2023/10/09 14:58:34;;;;;;;40.50;19.00;;;;;;;16.17;28.97;100806.83;105953;1257;60561;-87
2023/10/09 15:01:15;;;;;;;28.60;14.60;;;;;;;16.07;29.07;100811.48;105947;1256;60606;-82
2023/10/09 15:03:43;;;;;;;30.00;15.10;;;;;;;15.96;29.32;100815.02;106093;1260;73860;-87
2023/10/09 15:06:11;;;;;;;13.00;7.80;;;;;;;15.95;29.46;100819.51;106059;1257;67633;-83
2023/10/09 15:08:39;;;;;;;12.00;6.20;;;;;;;15.95;29.47;100821.71;106803;1257;71433;-82
2023/10/09 15:11:08;;;;;;;15.00;6.60;;;;;;;15.99;29.64;100824.01;105838;1256;61361;-88
2023/10/09 15:13:39;;;;;;;15.30;6.80;;;;;;;15.94;29.73;100823.23;105980;1256;59192;-81
2023/10/09 15:16:07;;;;;;;12.80;5.90;;;;;;;15.89;29.77;100822.49;106049;1256;74228;-81
2023/10/09 15:18:37;;;;;;;15.00;6.40;;;;;;;15.82;29.95;100823.73;106156;1256;69033;-82
2023/10/09 15:21:06;;;;;;;14.10;8.80;;;;;;;15.78;30.03;100825.14;106318;1256;71384;-88
2023/10/09 15:23:36;;;;;;;13.60;6.30;;;;;;;15.70;30.21;100819.56;105964;1257;60327;-87
2023/10/09 15:26:06;;;;;;;10.20;5.60;;;;;;;15.64;30.33;100827.02;105962;1256;62425;-81
2023/10/09 15:28:35;;;;;;;16.20;7.10;;;;;;;15.54;30.49;100826.49;106059;1256;75805;-81
2023/10/09 15:31:10;;;;;;;11.90;4.80;;;;;;;15.44;30.62;100828.77;106133;1260;70648;-85
2023/10/09 15:33:40;;;;;;;8.30;3.90;;;;;;;15.39;30.79;100831.11;106426;1257;74173;-81
2023/10/09 15:36:13;;;;;;;7.20;3.10;;;;;;;15.34;30.92;100831.52;107099;1256;60696;-81
2023/10/09 15:38:40;;;;;;;;;;;;;;;15.29;31.03;100833.37;106063;1257;61546;-81
2023/10/09 15:41:08;;;;;;;7.60;3.40;;;;;;;15.29;31.06;100836.40;105980;1259;76054;-82
2023/10/09 15:43:36;;;;;;;11.50;4.40;;;;;;;15.24;31.17;100837.36;106143;1256;69887;-81
2023/10/09 15:46:10;;;;;;;9.80;4.10;;;;;;;15.17;31.35;100839.86;105990;1257;73158;-85
2023/10/09 15:48:39;;;;;;;13.50;5.50;;;;;;;15.11;31.54;100838.70;106746;1256;60452;-85
2023/10/09 15:51:14;;;;;;;11.00;5.20;;;;;;;15.04;31.71;100841.00;106198;1258;60391;-84
2023/10/09 15:53:43;;;;;;;28.80;14.50;;;;;;;14.96;31.91;100847.58;106297;1256;74874;-81
2023/10/09 15:56:16;;;;;;;32.20;16.70;;;;;;;14.87;32.12;100849.73;106187;1260;67445;-85
2023/10/09 15:58:44;;;;;;;21.10;11.60;;;;;;;14.78;32.34;100853.56;106216;1261;74999;-85
2023/10/09 16:01:13;;;;;;;14.70;7.10;;;;;;;14.77;32.47;100853.84;106635;1261;60444;-85
2023/10/09 16:03:42;;;;;;;9.00;5.30;;;;;;;14.73;32.68;100860.20;106267;1256;60491;-86
2023/10/09 16:06:13;;;;;;;9.70;4.80;;;;;;;14.69;32.86;100865.46;106061;1256;73971;-85
2023/10/09 16:08:47;;;;;;;24.20;14.90;;;;;;;14.64;33.00;100866.35;106160;1260;67090;-85
2023/10/09 16:11:24;;;;;;;7.80;4.30;;;;;;;14.59;33.21;100869.23;106374;1256;71580;-85
2023/10/09 16:13:53;;;;;;;5.90;3.10;;;;;;;14.56;33.11;100868.95;107060;1260;61181;-85
2023/10/09 16:16:28;;;;;;;9.20;3.90;;;;;;;14.54;33.27;100872.11;106047;1256;59270;-84
2023/10/09 16:18:57;;;;;;;9.50;3.80;;;;;;;14.49;33.45;100867.79;106119;1256;73862;-84
2023/10/09 16:21:25;;;;;;;5.20;2.40;;;;;;;14.44;33.63;100869.52;106135;1260;70206;-85
2023/10/09 16:23:59;;;;;;;4.70;2.30;;;;;;;14.40;33.80;100870.10;105950;1261;73562;-85
2023/10/09 16:26:28;;;;;;;4.10;2.10;;;;;;;14.38;33.88;100872.89;107525;1256;60467;-85
2023/10/09 16:28:57;;;;;;;7.10;3.00;;;;;;;14.33;34.01;100872.64;105972;1257;60728;-85
2023/10/09 16:31:25;;;;;;;5.90;3.10;;;;;;;14.29;34.12;100879.11;106141;1256;73812;-85
2023/10/09 16:33:53;;;;;;;5.10;2.20;;;;;;;14.28;34.19;100878.74;106074;1259;67108;-84
2023/10/09 16:36:21;;;;;;;5.70;1.90;;;;;;;14.25;34.24;100876.14;106104;1257;71959;-84
2023/10/09 16:38:48;;;;;;;3.10;1.90;;;;;;;14.22;34.28;100877.83;106110;1262;61150;-86
2023/10/09 16:41:16;;;;;;;5.10;1.80;;;;;;;14.18;34.45;100884.61;106578;1256;60551;-86
2023/10/09 16:43:44;;;;;;;5.20;2.30;;;;;;;14.13;34.51;100887.15;106046;1256;73548;-85
2023/10/09 16:46:13;;;;;;;17.90;14.10;;;;;;;14.12;34.60;100888.16;106093;1257;70342;-85
2023/10/09 16:48:47;;;;;;;7.80;5.10;;;;;;;14.04;34.77;100885.06;106036;1257;74123;-85
2023/10/09 16:51:17;;;;;;;7.10;2.80;;;;;;;13.98;34.90;100889.14;106658;1256;60533;-86
2023/10/09 16:53:45;;;;;;;9.70;3.70;;;;;;;13.95;35.03;100890.48;105938;1256;61939;-86